Time;durP1;ratioP1;P1;durP2;ratioP2;P2;SDS_P1;SDS_P2;PMS_P1;PMS_P2;Temp;Humidity;BMP_temperature;BMP_pressure;BME280_temperature;BME280_humidity;BME280_pressure;Samples;Min_cycle;Max_cycle;Signal;HPM_P1;HPM_P2
2023/04/14 00:00:51;;;;;;;;;;;;;;;10.17;100.00;99017.34;5567682;32;34109;-69
2023/04/14 00:03:53;;;;;;;;;;;;;;;10.19;100.00;99012.69;5567398;32;33758;-68
2023/04/14 00:06:57;;;;;;;;;;;;;;;10.21;100.00;99000.06;5553568;32;33958;-68
2023/04/14 00:10:00;;;;;;;;;;;;;;;10.53;100.00;98993.19;5567320;32;34777;-68
2023/04/14 00:13:02;;;;;;;;;;;;;;;10.53;100.00;98979.94;5553538;32;34228;-68
2023/04/14 00:16:05;;;;;;;;;;;;;;;10.46;100.00;98976.44;5567172;32;34890;-68
2023/04/14 00:19:08;;;;;;;;;;;;;;;10.55;100.00;98964.66;5553452;32;34214;-68
2023/04/14 00:22:11;;;;;;;;;;;;;;;10.70;100.00;98951.19;5553063;32;34113;-68
2023/04/14 00:25:13;;;;;;;;;;;;;;;10.70;100.00;98959.97;5567160;32;34006;-67
2023/04/14 00:28:16;;;;;;;;;;;;;;;10.77;100.00;98957.31;5567027;32;34347;-68
2023/04/14 00:31:19;;;;;;;;;;;;;;;10.88;100.00;98954.06;5567055;32;34339;-67
2023/04/14 00:34:22;;;;;;;;;;;;;;;10.90;100.00;98946.69;5566874;32;34774;-67
2023/04/14 00:37:25;;;;;;;;;;;;;;;11.01;100.00;98943.44;5569286;32;34206;-68
2023/04/14 00:40:28;;;;;;;;;;;;;;;11.08;100.00;98952.22;5569123;32;34120;-67
2023/04/14 00:43:30;;;;;;;;;;;;;;;11.06;100.00;98959.56;5569194;32;33882;-67
2023/04/14 00:46:34;;;;;;;;;;;;;;;11.03;100.00;98959.97;5555299;32;34300;-67
2023/04/14 00:49:37;;;;;;;;;;;;;;;10.97;100.00;98962.63;5569253;32;33850;-67
2023/04/14 00:52:41;;;;;;;;;;;;;;;10.96;100.00;98961.81;5568938;32;34403;-68
2023/04/14 00:55:43;;;;;;;;;;;;;;;11.02;100.00;98963.66;5569020;32;34019;-68
2023/04/14 00:58:50;;;;;;;;;;;;;;;11.05;100.00;98957.09;5569115;32;34198;-68
2023/04/14 01:01:54;;;;;;;;;;;;;;;11.02;100.00;98946.91;5568886;32;34048;-68
2023/04/14 01:04:57;;;;;;;;;;;;;;;11.09;100.00;98956.47;5569400;32;34090;-67
2023/04/14 01:08:00;;;;;;;;;;;;;;;11.13;100.00;98954.25;5555217;32;34183;-68
2023/04/14 01:11:06;;;;;;;;;;;;;;;11.03;100.00;98956.50;5569075;32;34827;-68
2023/04/14 01:14:15;;;;;;;;;;;;;;;11.16;100.00;98948.53;5569356;32;34717;-68
2023/04/14 01:17:31;;;;;;;;;;;;;;;11.11;100.00;98941.19;5568813;32;35256;-68
2023/04/14 01:20:36;;;;;;;;;;;;;;;11.15;100.00;98921.16;5568686;32;35012;-67
2023/04/14 01:23:40;;;;;;;;;;;;;;;11.13;100.00;98917.91;5568764;32;34516;-67
2023/04/14 01:26:44;;;;;;;;;;;;;;;11.20;100.00;98902.78;5554914;32;34816;-67
2023/04/14 01:29:56;;;;;;;;;;;;;;;11.19;100.00;98905.63;5568843;32;34323;-67
2023/04/14 01:33:03;;;;;;;;;;;;;;;11.16;100.00;98890.94;5568794;32;34597;-67
2023/04/14 01:36:11;;;;;;;;;;;;;;;11.19;100.00;98873.78;5568868;32;34789;-67
2023/04/14 01:39:17;;;;;;;;;;;;;;;11.28;100.00;98856.59;5569004;32;34809;-67
2023/04/14 01:42:25;;;;;;;;;;;;;;;11.23;100.00;98857.22;5554764;32;34754;-67
2023/04/14 01:45:31;;;;;;;;;;;;;;;11.20;100.00;98857.66;5568663;32;34063;-66
2023/04/14 01:48:35;;;;;;;;;;;;;;;11.20;100.00;98846.22;5568171;32;34410;-67
2023/04/14 01:51:39;;;;;;;;;;;;;;;11.19;100.00;98849.87;5568640;32;34272;-66
2023/04/14 01:54:43;;;;;;;;;;;;;;;11.19;100.00;98858.66;5568462;32;34342;-67
2023/04/14 01:57:47;;;;;;;;;;;;;;;11.18;100.00;98857.03;5568628;32;34600;-67
2023/04/14 02:00:51;;;;;;;;;;;;;;;11.20;98.01;98862.16;5568484;32;33879;-68
2023/04/14 02:03:53;;;;;;;;;;;;;;;11.25;97.17;98862.34;5568629;32;34163;-67
2023/04/14 02:06:58;;;;;;;;;;;;;;;11.24;97.23;98855.38;5568391;32;34917;-66
2023/04/14 02:10:02;;;;;;;;;;;;;;;11.23;94.71;98848.47;5568583;32;33938;-67
2023/04/14 02:13:05;;;;;;;;;;;;;;;11.25;95.37;98857.84;5568418;32;35019;-67
2023/04/14 02:16:09;;;;;;;;;;;;;;;11.35;93.29;98844.13;5568744;32;34114;-67
2023/04/14 02:19:18;;;;;;;;;;;;;;;11.34;92.18;98839.84;5568294;32;34139;-68
2023/04/14 02:22:21;;;;;;;;;;;;;;;11.29;93.25;98824.53;5554545;32;33599;-67
2023/04/14 02:25:25;;;;;;;;;;;;;;;11.34;91.82;98819.41;5568604;32;34760;-68
2023/04/14 02:28:30;;;;;;;;;;;;;;;11.37;90.87;98815.53;5568300;32;34023;-68
2023/04/14 02:31:36;;;;;;;;;;;;;;;11.39;91.64;98821.44;5568330;32;34065;-67
2023/04/14 02:34:45;;;;;;;;;;;;;;;11.39;90.07;98831.25;5554567;32;34280;-67
2023/04/14 02:37:49;;;;;;;;;;;;;;;11.35;91.24;98838.81;5568271;32;34182;-67
2023/04/14 02:40:52;;;;;;;;;;;;;;;11.33;91.51;98839.03;5567923;32;34784;-67
2023/04/14 02:44:00;;;;;;;;;;;;;;;11.29;90.79;98840.47;5567964;32;33992;-68
2023/04/14 02:47:06;;;;;;;;;;;;;;;11.26;93.42;98848.03;5568515;32;34237;-67
2023/04/14 02:50:11;;;;;;;;;;;;;;;11.26;90.55;98842.72;5554434;32;34236;-67
2023/04/14 02:53:16;;;;;;;;;;;;;;;11.29;91.87;98842.31;5568212;32;33479;-67
2023/04/14 02:56:19;;;;;;;;;;;;;;;11.22;90.08;98829.06;5567998;32;34213;-67
2023/04/14 02:59:23;;;;;;;;;;;;;;;11.25;90.57;98827.81;5567029;32;34779;-68
2023/04/14 03:02:27;;;;;;;;;;;;;;;11.27;90.84;98823.94;5568293;32;34034;-68
2023/04/14 03:05:32;;;;;;;;;;;;;;;11.34;91.04;98808.78;5568370;32;34246;-68
2023/04/14 03:08:36;;;;;;;;;;;;;;;11.24;90.69;98819.03;5567872;32;35437;-68
2023/04/14 03:11:40;;;;;;;;;;;;;;;11.25;93.79;98820.69;5568275;32;34095;-68
2023/04/14 03:14:43;;;;;;;;;;;;;;;11.23;89.88;98814.75;5567911;32;34782;-68
2023/04/14 03:17:52;;;;;;;;;;;;;;;11.32;92.37;98813.53;5554122;32;34052;-68
2023/04/14 03:20:56;;;;;;;;;;;;;;;11.22;92.28;98807.84;5568237;32;34705;-69
2023/04/14 03:23:59;;;;;;;;;;;;;;;11.17;89.12;98793.56;5567884;32;34228;-68
2023/04/14 03:27:04;;;;;;;;;;;;;;;11.21;90.12;98784.97;5567806;32;34060;-68
2023/04/14 03:30:09;;;;;;;;;;;;;;;11.23;91.74;98788.22;5568223;32;33820;-67
2023/04/14 03:33:16;;;;;;;;;;;;;;;11.29;89.43;98775.94;5567707;32;34050;-67
2023/04/14 03:36:21;;;;;;;;;;;;;;;11.28;89.04;98782.25;5567772;32;33703;-67
2023/04/14 03:39:33;;;;;;;;;;;;;;;11.35;90.28;98772.44;5567959;32;34303;-68
2023/04/14 03:42:37;;;;;;;;;;;;;;;11.24;90.32;98744.72;5567453;31;34208;-67
2023/04/14 03:45:40;;;;;;;;;;;;;;;11.26;89.92;98740.03;5567439;32;33904;-67
2023/04/14 03:48:46;;;;;;;;;;;;;;;11.24;89.87;98739.41;5567546;31;34762;-67
2023/04/14 03:51:52;;;;;;;;;;;;;;;11.21;94.66;98744.34;5587506;31;34708;-68
2023/04/14 03:54:57;;;;;;;;;;;;;;;11.26;91.94;98753.28;5563477;32;34239;-68
2023/04/14 03:58:01;;;;;;;;;;;;;;;11.10;93.38;98806.84;5568062;31;34132;-67
2023/04/14 04:01:04;;;;;;;;;;;;;;;11.09;93.64;98890.13;5567332;32;34367;-69
2023/04/14 04:04:07;;;;;;;;;;;;;;;11.08;99.76;98846.06;5567814;32;34830;-68
2023/04/14 04:07:13;;;;;;;;;;;;;;;11.03;100.00;98853.84;5566526;32;34272;-68
2023/04/14 04:10:20;;;;;;;;;;;;;;;11.06;100.00;98842.78;5566024;32;33933;-67
2023/04/14 04:13:22;;;;;;;;;;;;;;;10.94;100.00;98811.81;5567221;32;34815;-67
2023/04/14 04:16:27;;;;;;;;;;;;;;;10.87;100.00;98804.69;5566643;32;34492;-66
2023/04/14 04:19:30;;;;;;;;;;;;;;;10.85;100.00;98805.88;5567197;32;34378;-67
2023/04/14 04:22:35;;;;;;;;;;;;;;;10.96;100.00;98812.41;5567052;32;34190;-67
2023/04/14 04:25:39;;;;;;;;;;;;;;;10.92;100.00;98803.22;5567037;32;34634;-67
2023/04/14 04:28:43;;;;;;;;;;;;;;;11.04;100.00;98812.97;5567136;32;34985;-67
2023/04/14 04:31:47;;;;;;;;;;;;;;;10.99;100.00;98810.13;5567175;32;34213;-67
2023/04/14 04:34:51;;;;;;;;;;;;;;;11.04;100.00;98814.81;5567107;32;34171;-67
2023/04/14 04:37:54;;;;;;;;;;;;;;;11.16;100.00;98799.88;5566674;32;34171;-67
2023/04/14 04:40:57;;;;;;;;;;;;;;;11.11;100.00;98800.53;5566566;32;34766;-67
2023/04/14 04:44:00;;;;;;;;;;;;;;;11.17;100.00;98796.22;5565692;32;33887;-67
2023/04/14 04:47:03;;;;;;;;;;;;;;;11.20;99.60;98796.59;5572008;31;34207;-67
2023/04/14 04:50:06;;;;;;;;;;;;;;;11.14;98.27;98789.47;5571980;31;34213;-67
2023/04/14 04:53:11;;;;;;;;;;;;;;;11.11;97.22;98781.13;5566469;32;34188;-67
2023/04/14 04:56:13;;;;;;;;;;;;;;;11.12;98.08;98788.06;5564247;31;33931;-67
2023/04/14 04:59:16;;;;;;;;;;;;;;;11.07;99.90;98795.84;5585617;31;34040;-68
2023/04/14 05:02:18;;;;;;;;;;;;;;;11.11;100.00;98794.41;5577181;31;34562;-67
2023/04/14 05:05:21;;;;;;;;;;;;;;;11.03;100.00;98800.75;5569496;31;34248;-68
2023/04/14 05:08:23;;;;;;;;;;;;;;;11.06;99.62;98810.94;5552655;32;34149;-67
2023/04/14 05:11:26;;;;;;;;;;;;;;;11.04;97.74;98822.78;5568569;32;34177;-66
2023/04/14 05:14:28;;;;;;;;;;;;;;;11.00;98.89;98830.34;5566305;32;34242;-67
2023/04/14 05:17:31;;;;;;;;;;;;;;;11.06;100.00;98823.41;5565616;31;34370;-67
2023/04/14 05:20:34;;;;;;;;;;;;;;;11.04;99.91;98828.91;5552878;31;33990;-68
2023/04/14 05:23:38;;;;;;;;;;;;;;;10.90;100.00;98833.44;5579027;31;34464;-67
2023/04/14 05:26:40;;;;;;;;;;;;;;;10.90;100.00;98827.31;5568549;32;34869;-66
2023/04/14 05:29:46;;;;;;;;;;;;;;;10.83;100.00;98821.22;5569518;31;34051;-68
2023/04/14 05:32:49;;;;;;;;;;;;;;;10.78;100.00;98823.66;5568567;31;34179;-67
2023/04/14 05:35:52;;;;;;;;;;;;;;;10.80;100.00;98817.13;5568915;32;34808;-67
2023/04/14 05:38:54;;;;;;;;;;;;;;;10.91;100.00;98818.31;5568752;32;34891;-67
2023/04/14 05:41:58;;;;;;;;;;;;;;;10.97;100.00;98814.84;5574426;31;33985;-66
2023/04/14 05:45:01;;;;;;;;;;;;;;;11.00;100.00;98813.59;5572807;31;34212;-67
2023/04/14 05:48:23;;;;;;;;;;;;;;;10.97;100.00;98814.03;5571113;31;34636;-68
2023/04/14 05:51:26;;;;;;;;;;;;;;;11.10;100.00;98820.13;5562021;31;34843;-65
2023/04/14 05:54:29;;;;;;;;;;;;;;;11.07;100.00;98817.88;5559220;32;33483;-67
2023/04/14 05:57:31;;;;;;;;;;;;;;;11.10;100.00;98824.59;5568545;32;33993;-67
2023/04/14 06:00:34;;;;;;;;;;;;;;;11.20;100.00;98830.28;5553879;32;34403;-67
2023/04/14 06:03:37;;;;;;;;;;;;;;;11.28;100.00;98827.41;5553952;31;34193;-67
2023/04/14 06:06:42;;;;;;;;;;;;;;;11.18;100.00;98830.50;5567816;32;32733;-67
2023/04/14 06:09:47;;;;;;;;;;;;;;;11.48;100.00;98817.50;5569782;31;34669;-66
2023/04/14 06:12:50;;;;;;;;;;;;;;;11.73;98.13;98815.78;5569431;31;34151;-67
2023/04/14 06:15:54;;;;;;;;;;;;;;;11.85;100.00;98813.28;5570280;31;34632;-67
2023/04/14 06:19:00;;;;;;;;;;;;;;;11.97;97.24;98824.03;5571025;31;34848;-68
2023/04/14 06:22:04;;;;;;;;;;;;;;;12.01;99.42;98819.91;5575135;31;34607;-68
2023/04/14 06:25:07;;;;;;;;;;;;;;;12.11;97.03;98820.25;5556521;32;34739;-67
2023/04/14 06:28:09;;;;;;;;;;;;;;;12.14;94.30;98809.19;5578343;31;34359;-68
2023/04/14 06:31:13;;;;;;;;;;;;;;;12.18;93.25;98802.41;5587505;31;34910;-67
2023/04/14 06:34:15;;;;;;;;;;;;;;;12.05;96.40;98802.53;5571168;31;33928;-68
2023/04/14 06:37:18;;;;;;;;;;;;;;;12.22;94.75;98798.28;5573242;31;34606;-67
2023/04/14 06:40:20;;;;;;;;;;;;;;;12.07;93.95;98805.75;5562064;31;34804;-67
2023/04/14 06:43:23;;;;;;;;;;;;;;;12.26;94.13;98796.00;5573863;31;34294;-68
2023/04/14 06:46:25;;;;;;;;;;;;;;;12.37;93.53;98792.62;5574737;31;35505;-68
2023/04/14 06:49:28;;;;;;;;;;;;;;;12.44;94.38;98790.75;5570738;31;34140;-68
2023/04/14 06:52:30;;;;;;;;;;;;;;;12.26;93.92;98788.84;5568416;31;34924;-67
2023/04/14 06:55:39;;;;;;;;;;;;;;;12.17;95.58;98787.47;5541208;32;34072;-67
2023/04/14 06:58:43;;;;;;;;;;;;;;;12.23;94.91;98791.94;5567735;32;34525;-67
2023/04/14 07:01:52;;;;;;;;;;;;;;;12.28;95.00;98793.94;5554554;32;33323;-69
2023/04/14 07:04:55;;;;;;;;;;;;;;;12.34;93.74;98793.09;5567851;32;33976;-67
2023/04/14 07:07:57;;;;;;;;;;;;;;;12.28;93.42;98785.97;5567737;31;33920;-67
2023/04/14 07:11:04;;;;;;;;;;;;;;;12.23;94.19;98785.81;5570303;31;34795;-67
2023/04/14 07:14:07;;;;;;;;;;;;;;;12.52;94.85;98788.63;5567591;31;34783;-67
2023/04/14 07:17:09;;;;;;;;;;;;;;;12.77;91.23;98793.09;5573128;31;34295;-67
2023/04/14 07:20:12;;;;;;;;;;;;;;;12.40;92.81;98784.22;5574558;31;34012;-67
2023/04/14 07:23:14;;;;;;;;;;;;;;;12.59;92.19;98784.03;5587227;31;34210;-69
2023/04/14 07:26:17;;;;;;;;;;;;;;;12.46;91.95;98783.34;5570836;31;34079;-68
2023/04/14 07:29:27;;;;;;;;;;;;;;;12.55;93.24;98785.50;5567863;31;33827;-68
2023/04/14 07:32:31;;;;;;;;;;;;;;;12.81;90.90;98776.47;5554068;32;34828;-67
2023/04/14 07:35:34;;;;;;;;;;;;;;;13.04;87.27;98775.78;5567713;31;35353;-68
2023/04/14 07:38:37;;;;;;;;;;;;;;;13.33;88.37;98774.25;5577491;31;34083;-68
2023/04/14 07:41:40;;;;;;;;;;;;;;;13.75;83.91;98767.91;5565662;31;34144;-68
2023/04/14 07:44:42;;;;;;;;;;;;;;;13.82;83.70;98760.66;5584804;31;34248;-68
2023/04/14 07:47:45;;;;;;;;;;;;;;;13.62;81.97;98765.44;5578367;31;34048;-68
2023/04/14 07:50:51;;;;;;;;;;;;;;;13.67;82.42;98764.75;5554211;31;34150;-67
2023/04/14 07:53:54;;;;;;;;;;;;;;;13.47;87.68;98762.38;5565390;31;34192;-69
2023/04/14 07:56:57;;;;;;;;;;;;;;;13.11;90.41;98767.75;5586558;31;34121;-68
2023/04/14 07:59:59;;;;;;;;;;;;;;;12.88;94.70;98766.53;5579456;31;34939;-68
2023/04/14 08:03:02;;;;;;;;;;;;;;;12.78;99.79;98760.13;5568817;31;34305;-68
2023/04/14 08:06:05;;;;;;;;;;;;;;;12.52;97.57;98770.00;5566808;32;34598;-68
2023/04/14 08:09:08;;;;;;;;;;;;;;;12.63;98.05;98765.81;5566067;31;34810;-67
2023/04/14 08:12:10;;;;;;;;;;;;;;;12.54;96.88;98789.19;5569030;31;34113;-67
2023/04/14 08:15:13;;;;;;;;;;;;;;;12.85;96.03;98790.94;5570911;31;34076;-68
2023/04/14 08:18:16;;;;;;;;;;;;;;;13.11;95.10;98784.56;5585086;31;34248;-68
2023/04/14 08:21:18;;;;;;;;;;;;;;;13.22;96.80;98786.44;5586431;31;33982;-67
2023/04/14 08:24:21;;;;;;;;;;;;;;;13.50;92.72;98769.94;5560213;32;34610;-67
2023/04/14 08:27:23;;;;;;;;;;;;;;;13.45;93.01;98762.62;5567799;31;34021;-67
2023/04/14 08:30:26;;;;;;;;;;;;;;;13.11;89.58;98765.91;5585484;31;33869;-68
2023/04/14 08:33:29;;;;;;;;;;;;;;;13.05;92.21;98759.59;5563228;31;34365;-68
2023/04/14 08:36:31;;;;;;;;;;;;;;;12.99;96.98;98759.66;5570259;31;34783;-67
2023/04/14 08:39:34;;;;;;;;;;;;;;;12.86;92.94;98751.84;5568982;31;34119;-68
2023/04/14 08:42:37;;;;;;;;;;;;;;;12.76;97.25;98762.19;5576132;31;33968;-68
2023/04/14 08:45:40;;;;;;;;;;;;;;;12.87;98.55;98764.94;5583675;31;34135;-68
2023/04/14 08:48:45;;;;;;;;;;;;;;;12.70;97.74;98760.41;5577846;31;34528;-67
2023/04/14 08:51:49;;;;;;;;;;;;;;;12.59;100.00;98772.56;5572571;31;33872;-66
2023/04/14 08:54:54;;;;;;;;;;;;;;;12.59;100.00;98768.06;5553494;32;34360;-67
2023/04/14 08:57:58;;;;;;;;;;;;;;;12.55;100.00;98782.84;5556615;31;34858;-67
2023/04/14 09:01:02;;;;;;;;;;;;;;;12.18;100.00;98792.59;5580877;31;34243;-68
2023/04/14 09:04:05;;;;;;;;;;;;;;;11.86;100.00;98792.84;5576598;31;34194;-69
2023/04/14 09:07:10;;;;;;;;;;;;;;;11.79;100.00;98790.22;5575342;31;34192;-69
2023/04/14 09:10:12;;;;;;;;;;;;;;;11.74;100.00;98782.88;5572815;31;35331;-69
2023/04/14 09:13:16;;;;;;;;;;;;;;;11.66;100.00;98784.97;5575145;31;34207;-70
2023/04/14 09:16:19;;;;;;;;;;;;;;;11.43;100.00;98787.31;5575875;31;34313;-69
2023/04/14 09:19:23;;;;;;;;;;;;;;;11.25;100.00;98783.50;5568342;31;33975;-70
2023/04/14 09:22:26;;;;;;;;;;;;;;;11.18;100.00;98798.63;5569431;31;34815;-69
2023/04/14 09:25:29;;;;;;;;;;;;;;;11.00;100.00;98795.03;5582915;31;35387;-70
2023/04/14 09:28:31;;;;;;;;;;;;;;;10.90;100.00;98809.56;5570676;32;34654;-70
2023/04/14 09:31:35;;;;;;;;;;;;;;;10.86;100.00;98811.00;5585066;31;33989;-70
2023/04/14 09:34:48;;;;;;;;;;;;;;;11.03;100.00;98814.03;5556832;32;34566;-70
2023/04/14 09:37:50;;;;;;;;;;;;;;;10.93;100.00;98811.00;5555294;32;34102;-69
2023/04/14 09:41:03;;;;;;;;;;;;;;;11.04;100.00;98804.19;5574527;31;34175;-71
2023/04/14 09:44:53;;;;;;;;;;;;;;;10.77;100.00;98809.59;5561796;31;34934;-71
2023/04/14 09:48:06;;;;;;;;;;;;;;;10.75;100.00;98813.47;5586763;31;35083;-72
2023/04/14 09:51:08;;;;;;;;;;;;;;;10.72;100.00;98806.75;5587983;31;33625;-73
2023/04/14 09:54:20;;;;;;;;;;;;;;;10.86;100.00;98800.38;5583190;31;34131;-71
2023/04/14 09:57:25;;;;;;;;;;;;;;;10.86;100.00;98799.56;5568972;32;34154;-73
2023/04/14 10:00:30;;;;;;;;;;;;;;;10.72;100.00;98790.00;5569196;32;33499;-72
2023/04/14 10:03:34;;;;;;;;;;;;;;;10.69;100.00;98788.59;5568087;31;34889;-72
2023/04/14 10:06:39;;;;;;;;;;;;;;;10.83;100.00;98784.06;5568518;32;34361;-72
2023/04/14 10:09:46;;;;;;;;;;;;;;;10.78;100.00;98784.69;5568277;32;34541;-71
2023/04/14 10:12:51;;;;;;;;;;;;;;;10.67;100.00;98795.94;5570921;31;34090;-72
2023/04/14 10:15:54;;;;;;;;;;;;;;;10.72;100.00;98797.97;5578995;31;33982;-71
2023/04/14 10:18:57;;;;;;;;;;;;;;;10.80;100.00;98800.38;5573737;31;34360;-72
2023/04/14 10:22:00;;;;;;;;;;;;;;;10.75;100.00;98793.06;5577647;31;34059;-70
2023/04/14 10:25:04;;;;;;;;;;;;;;;10.78;100.00;98797.16;5567189;31;34843;-70
2023/04/14 10:28:06;;;;;;;;;;;;;;;10.73;100.00;98797.78;5567149;32;34845;-72
2023/04/14 10:31:29;;;;;;;;;;;;;;;10.62;100.00;98798.41;5568550;32;34081;-73
2023/04/14 10:34:35;;;;;;;;;;;;;;;10.67;100.00;98803.87;5568806;32;34575;-68
2023/04/14 10:37:38;;;;;;;;;;;;;;;10.62;100.00;98795.75;5568507;32;34384;-71
2023/04/14 10:40:44;;;;;;;;;;;;;;;10.50;100.00;98792.09;5567922;32;34249;-72
2023/04/14 10:43:47;;;;;;;;;;;;;;;10.55;100.00;98804.75;5567596;32;34924;-72
2023/04/14 10:46:50;;;;;;;;;;;;;;;10.51;100.00;98801.66;5567857;31;34370;-73
2023/04/14 10:49:55;;;;;;;;;;;;;;;10.50;100.00;98792.09;5587369;31;34103;-72
2023/04/14 10:53:05;;;;;;;;;;;;;;;10.54;100.00;98795.97;5587291;31;34862;-72
2023/04/14 10:56:08;;;;;;;;;;;;;;;10.54;100.00;98798.63;5588043;31;34131;-72
2023/04/14 10:59:12;;;;;;;;;;;;;;;10.61;100.00;98783.50;5567248;31;34672;-71
2023/04/14 11:02:40;;;;;;;;;;;;;;;10.70;100.00;98786.75;5567675;32;34552;-71
2023/04/14 11:05:48;;;;;;;;;;;;;;;10.71;100.00;98785.72;5586062;31;34066;-71
2023/04/14 11:08:54;;;;;;;;;;;;;;;10.81;100.00;98784.28;5587060;31;34825;-71
2023/04/14 11:12:01;;;;;;;;;;;;;;;10.88;100.00;98784.28;5587357;31;33808;-69
2023/04/14 11:15:03;;;;;;;;;;;;;;;10.86;100.00;98783.66;5571049;31;34799;-71
2023/04/14 11:18:10;;;;;;;;;;;;;;;10.98;100.00;98779.34;5567728;32;33921;-70
2023/04/14 11:21:15;;;;;;;;;;;;;;;10.92;100.00;98777.53;5570968;31;34022;-71
2023/04/14 11:24:20;;;;;;;;;;;;;;;10.97;100.00;98768.94;5587398;31;34939;-70
2023/04/14 11:27:23;;;;;;;;;;;;;;;10.99;100.00;98774.84;5573506;31;34804;-70
2023/04/14 11:30:26;;;;;;;;;;;;;;;11.04;100.00;98775.00;5585064;31;33909;-69
2023/04/14 11:33:30;;;;;;;;;;;;;;;10.95;100.00;98765.66;5568473;31;34230;-69
2023/04/14 11:36:35;;;;;;;;;;;;;;;10.97;100.00;98758.31;5567556;31;34252;-69
2023/04/14 11:39:38;;;;;;;;;;;;;;;10.96;100.00;98765.47;5567573;32;35342;-69
2023/04/14 11:42:45;;;;;;;;;;;;;;;10.89;100.00;98762.03;5553805;32;34042;-71
2023/04/14 11:45:49;;;;;;;;;;;;;;;10.79;100.00;98764.28;5568344;31;34560;-69
2023/04/14 11:48:55;;;;;;;;;;;;;;;10.74;100.00;98761.47;5567629;32;34056;-71
2023/04/14 11:52:03;;;;;;;;;;;;;;;10.85;100.00;98763.44;5567778;32;33198;-72
2023/04/14 11:55:09;;;;;;;;;;;;;;;10.80;100.00;98757.94;5567561;32;34548;-70
2023/04/14 11:58:12;;;;;;;;;;;;;;;10.97;100.00;98753.00;5567427;32;34204;-71
2023/04/14 12:01:21;;;;;;;;;;;;;;;10.92;100.00;98753.63;5567808;32;34130;-71
2023/04/14 12:04:25;;;;;;;;;;;;;;;10.99;100.00;98753.63;5567243;32;34720;-69
2023/04/14 12:07:29;;;;;;;;;;;;;;;10.83;100.00;98758.37;5569939;31;34317;-71
2023/04/14 12:10:33;;;;;;;;;;;;;;;10.69;100.00;98750.66;5571962;31;34398;-70
2023/04/14 12:13:39;;;;;;;;;;;;;;;10.58;100.00;98744.16;5567288;32;34044;-71
2023/04/14 12:16:42;;;;;;;;;;;;;;;10.57;100.00;98747.00;5566308;32;33908;-70
2023/04/14 12:19:45;;;;;;;;;;;;;;;10.45;100.00;98750.31;5567189;32;34489;-72
2023/04/14 12:22:48;;;;;;;;;;;;;;;10.44;100.00;98746.00;5567109;32;34367;-72
2023/04/14 12:25:51;;;;;;;;;;;;;;;10.50;100.00;98735.59;5567052;32;34220;-70
2023/04/14 12:28:55;;;;;;;;;;;;;;;10.58;100.00;98730.06;5567084;32;34927;-71
2023/04/14 12:32:00;;;;;;;;;;;;;;;10.57;100.00;98721.28;5566352;32;34162;-72
2023/04/14 12:35:05;;;;;;;;;;;;;;;10.51;100.00;98703.56;5566145;32;34364;-70
2023/04/14 12:38:09;;;;;;;;;;;;;;;10.46;100.00;98696.22;5566643;32;33905;-72
2023/04/14 12:41:20;;;;;;;;;;;;;;;10.21;100.00;98715.66;5566509;32;34506;-69
2023/04/14 12:44:23;;;;;;;;;;;;;;;9.94;100.00;98731.53;5566118;32;34490;-71
2023/04/14 12:47:27;;;;;;;;;;;;;;;9.90;100.00;98740.91;5566739;32;34048;-70
2023/04/14 12:50:31;;;;;;;;;;;;;;;9.75;100.00;98755.34;5566374;31;34602;-70
2023/04/14 12:53:34;;;;;;;;;;;;;;;9.74;100.00;98762.47;5566723;32;34301;-68
2023/04/14 12:56:40;;;;;;;;;;;;;;;9.76;100.00;98776.34;5566597;32;34241;-68
2023/04/14 12:59:42;;;;;;;;;;;;;;;9.82;100.00;98767.59;5566331;32;34208;-70
2023/04/14 13:02:45;;;;;;;;;;;;;;;9.93;100.00;98777.56;5568596;31;34157;-70
2023/04/14 13:05:48;;;;;;;;;;;;;;;9.90;100.00;98782.47;5566846;31;35578;-69
2023/04/14 13:08:51;;;;;;;;;;;;;;;9.81;100.00;98786.34;5577573;31;34279;-70
2023/04/14 13:11:56;;;;;;;;;;;;;;;9.76;100.00;98802.00;5585475;31;34901;-70
2023/04/14 13:14:59;;;;;;;;;;;;;;;9.73;100.00;98802.44;5585672;31;34212;-70
2023/04/14 13:18:01;;;;;;;;;;;;;;;9.63;100.00;98812.59;5584077;31;34194;-71
2023/04/14 13:21:04;;;;;;;;;;;;;;;9.58;100.00;98800.72;5585565;31;34197;-70
2023/04/14 13:24:07;;;;;;;;;;;;;;;9.49;100.00;98795.81;5554523;32;34790;-70
2023/04/14 13:27:10;;;;;;;;;;;;;;;9.61;100.00;98799.53;5565793;32;34920;-70
2023/04/14 13:30:13;;;;;;;;;;;;;;;9.61;100.00;98804.84;5565866;32;33995;-72
2023/04/14 13:33:16;;;;;;;;;;;;;;;9.37;100.00;98800.06;5565474;32;33853;-71
2023/04/14 13:36:19;;;;;;;;;;;;;;;9.52;100.00;98808.69;5564886;31;34153;-70
2023/04/14 13:39:21;;;;;;;;;;;;;;;9.53;100.00;98819.06;5558684;31;34508;-72
2023/04/14 13:42:24;;;;;;;;;;;;;;;9.33;100.00;98833.25;5564792;32;34879;-72
2023/04/14 13:45:27;;;;;;;;;;;;;;;9.19;100.00;98836.84;5568872;31;33768;-71
2023/04/14 13:48:30;;;;;;;;;;;;;;;9.19;100.00;98842.13;5568240;32;34837;-73
2023/04/14 13:51:32;;;;;;;;;;;;;;;9.26;100.00;98827.91;5559043;31;34310;-71
2023/04/14 13:54:36;;;;;;;;;;;;;;;9.32;100.00;98821.03;5568309;31;34684;-72
2023/04/14 13:57:38;;;;;;;;;;;;;;;9.33;100.00;98822.66;5558004;32;34809;-71
2023/04/14 14:00:41;;;;;;;;;;;;;;;9.48;100.00;98831.28;5558091;31;34184;-74
2023/04/14 14:03:44;;;;;;;;;;;;;;;9.64;100.00;98838.03;5567918;31;34580;-73
2023/04/14 14:06:47;;;;;;;;;;;;;;;9.65;100.00;98835.19;5571651;31;34748;-72
2023/04/14 14:09:49;;;;;;;;;;;;;;;9.74;100.00;98818.09;5575442;31;34847;-72
2023/04/14 14:12:52;;;;;;;;;;;;;;;9.81;100.00;98824.22;5579637;31;34377;-75
2023/04/14 14:15:55;;;;;;;;;;;;;;;9.69;100.00;98828.47;5574125;31;34535;-73
2023/04/14 14:18:58;;;;;;;;;;;;;;;9.62;100.00;98845.38;5578215;31;34119;-74
2023/04/14 14:22:01;;;;;;;;;;;;;;;9.47;100.00;98838.41;5567476;32;34286;-73
2023/04/14 14:25:04;;;;;;;;;;;;;;;9.38;100.00;98838.75;5567075;32;34384;-73
2023/04/14 14:28:20;;;;;;;;;;;;;;;9.42;100.00;98851.41;5567850;32;33329;-73
2023/04/14 14:31:23;;;;;;;;;;;;;;;9.38;100.00;98849.34;5567445;32;34945;-75
2023/04/14 14:34:26;;;;;;;;;;;;;;;9.14;100.00;98851.47;5568330;32;34360;-73
2023/04/14 14:37:28;;;;;;;;;;;;;;;9.03;100.00;98857.31;5563361;31;33981;-75
2023/04/14 14:40:31;;;;;;;;;;;;;;;8.86;100.00;98876.34;5568252;32;34270;-72
2023/04/14 14:43:33;;;;;;;;;;;;;;;8.74;100.00;98878.69;5568100;31;35127;-73
2023/04/14 14:46:36;;;;;;;;;;;;;;;8.59;100.00;98875.31;5563887;31;172104;-72
2023/04/14 14:49:39;;;;;;;;;;;;;;;8.52;100.00;98880.53;5568136;32;34085;-73
2023/04/14 14:52:55;;;;;;;;;;;;;;;8.46;100.00;98870.75;5567251;32;34143;-74
2023/04/14 14:56:01;;;;;;;;;;;;;;;8.49;100.00;98869.53;5567248;32;34882;-74
2023/04/14 14:59:04;;;;;;;;;;;;;;;8.50;100.00;98877.28;5567960;32;33901;-74
2023/04/14 15:02:07;;;;;;;;;;;;;;;8.45;100.00;98887.59;5568065;32;34169;-72
2023/04/14 15:05:10;;;;;;;;;;;;;;;8.37;100.00;98900.97;5567793;32;34147;-74
2023/04/14 15:08:13;;;;;;;;;;;;;;;8.28;100.00;98905.50;5567017;32;34864;-73
2023/04/14 15:11:16;;;;;;;;;;;;;;;8.37;100.00;98903.59;5567685;32;34273;-73
2023/04/14 15:14:18;;;;;;;;;;;;;;;8.30;100.00;98905.34;5567286;32;34361;-73
2023/04/14 15:17:21;;;;;;;;;;;;;;;8.32;100.00;98913.91;5570098;31;34090;-73
2023/04/14 15:20:25;;;;;;;;;;;;;;;8.29;100.00;98916.91;5587241;31;35228;-73
2023/04/14 15:23:27;;;;;;;;;;;;;;;8.34;100.00;98919.00;5587314;31;34233;-73
2023/04/14 15:26:30;;;;;;;;;;;;;;;8.31;100.00;98932.59;5587130;31;34708;-72
2023/04/14 15:29:33;;;;;;;;;;;;;;;8.26;100.00;98926.03;5587705;31;34303;-73
2023/04/14 15:32:35;;;;;;;;;;;;;;;8.20;100.00;98932.06;5587148;31;34231;-74
2023/04/14 15:35:38;;;;;;;;;;;;;;;8.19;100.00;98930.41;5587158;31;34288;-74
2023/04/14 15:38:41;;;;;;;;;;;;;;;8.10;100.00;98934.19;5573534;31;33973;-71
2023/04/14 15:41:46;;;;;;;;;;;;;;;7.99;100.00;98924.09;5577543;31;34127;-71
2023/04/14 15:44:51;;;;;;;;;;;;;;;8.04;100.00;98929.62;5579172;31;34384;-72
2023/04/14 15:47:54;;;;;;;;;;;;;;;8.15;100.00;98934.44;5567455;32;34463;-72
2023/04/14 15:50:57;;;;;;;;;;;;;;;8.08;100.00;98940.66;5553524;32;34663;-72
2023/04/14 15:53:59;;;;;;;;;;;;;;;8.04;100.00;98942.03;5567418;32;33949;-73